createdAt,value
2024-03-25T00:00:26.344Z,1008.717
2024-03-25T00:01:25.285Z,1008.618
2024-03-25T00:02:25.338Z,1008.596
2024-03-25T00:03:26.305Z,1008.628
2024-03-25T00:04:25.332Z,1008.61
2024-03-25T00:05:26.284Z,1008.601
2024-03-25T00:06:25.337Z,1008.628
2024-03-25T00:07:25.340Z,1008.613
2024-03-25T00:08:26.315Z,1008.606
2024-03-25T00:09:25.351Z,1008.64
2024-03-25T00:10:26.292Z,1008.654
2024-03-25T00:11:25.344Z,1008.669
2024-03-25T00:12:26.320Z,1008.657
2024-03-25T00:13:25.350Z,1008.727
2024-03-25T00:14:25.350Z,1008.706
2024-03-25T00:15:26.297Z,1008.721
2024-03-25T00:16:25.356Z,1008.75
2024-03-25T00:17:26.329Z,1008.75
2024-03-25T00:18:25.321Z,1008.683
2024-03-25T00:19:25.315Z,1008.718
2024-03-25T00:20:26.321Z,1008.735
2024-03-25T00:21:25.366Z,1008.753
2024-03-25T00:22:26.335Z,1008.756
2024-03-25T00:23:25.369Z,1008.707
2024-03-25T00:24:30.014Z,1008.715
2024-03-25T00:25:26.315Z,1008.72
2024-03-25T00:26:25.380Z,1008.667
2024-03-25T00:27:26.355Z,1008.678
2024-03-25T00:28:25.395Z,1008.649
2024-03-25T00:29:26.315Z,1008.662
2024-03-25T00:30:26.334Z,1008.634
2024-03-25T00:31:25.402Z,1008.667
2024-03-25T00:32:26.397Z,1008.67
2024-03-25T00:33:25.406Z,1008.654
2024-03-25T00:34:26.333Z,1008.637
2024-03-25T00:35:26.328Z,1008.664
2024-03-25T00:36:25.391Z,1008.643
2024-03-25T00:37:26.375Z,1008.68
2024-03-25T00:38:25.403Z,1008.646
2024-03-25T00:39:26.399Z,1008.606
2024-03-25T00:40:26.367Z,1008.665
2024-03-25T00:41:26.351Z,1008.632
2024-03-25T00:42:25.371Z,1008.644
2024-03-25T00:43:25.423Z,1008.687
2024-03-25T00:44:26.372Z,1008.629
2024-03-25T00:45:26.370Z,1008.658
2024-03-25T00:46:26.404Z,1008.658
2024-03-25T00:47:25.417Z,1008.616
2024-03-25T00:48:25.427Z,1008.604
2024-03-25T00:49:26.405Z,1008.62
2024-03-25T00:50:26.386Z,1008.615
2024-03-25T00:51:26.362Z,1008.712
2024-03-25T00:52:25.388Z,1008.685
2024-03-25T00:53:34.066Z,1008.725
2024-03-25T00:54:25.427Z,1008.682
2024-03-25T00:55:26.379Z,1008.671
2024-03-25T00:56:26.387Z,1008.655
2024-03-25T00:57:25.441Z,1008.611
2024-03-25T00:58:26.373Z,1008.611
2024-03-25T00:59:25.408Z,1008.66
2024-03-25T01:00:26.392Z,1008.631
2024-03-25T01:01:26.387Z,1008.651
2024-03-25T01:02:25.453Z,1008.687
2024-03-25T01:03:26.406Z,1008.667
2024-03-25T01:04:25.453Z,1008.665
2024-03-25T01:05:26.401Z,1008.668
2024-03-25T01:06:26.475Z,1008.659
2024-03-25T01:07:25.419Z,1008.631
2024-03-25T01:08:26.454Z,1008.661
2024-03-25T01:09:25.474Z,1008.617
2024-03-25T01:10:29.134Z,1008.676
2024-03-25T01:11:25.463Z,1008.624
2024-03-25T01:12:25.498Z,1008.647
2024-03-25T01:13:26.429Z,1008.65
2024-03-25T01:14:25.442Z,1008.656
2024-03-25T01:15:26.430Z,1008.656
2024-03-25T01:16:25.481Z,1008.643
2024-03-25T01:17:25.557Z,1008.604
2024-03-25T01:18:26.454Z,1008.636
2024-03-25T01:19:25.457Z,1008.621
2024-03-25T01:20:26.455Z,1008.608
2024-03-25T01:21:25.491Z,1008.654
2024-03-25T01:22:30.166Z,1008.616
2024-03-25T01:23:25.497Z,1008.63
2024-03-25T01:24:25.524Z,1008.626
2024-03-25T01:25:26.478Z,1008.656
2024-03-25T01:26:25.492Z,1008.694
2024-03-25T01:27:26.469Z,1008.688
2024-03-25T01:28:25.468Z,1008.684
2024-03-25T01:29:25.513Z,1008.661
2024-03-25T01:30:26.492Z,1008.649
2024-03-25T01:31:25.464Z,1008.631
2024-03-25T01:32:26.496Z,1008.616
2024-03-25T01:33:25.473Z,1008.571
2024-03-25T01:34:25.543Z,1008.595
2024-03-25T01:35:26.486Z,1008.652
2024-03-25T01:36:25.477Z,1008.604
2024-03-25T01:37:26.519Z,1008.614
2024-03-25T01:38:25.485Z,1008.569
2024-03-25T01:39:29.159Z,1008.63
2024-03-25T01:40:26.494Z,1008.644
2024-03-25T01:41:25.554Z,1008.574
2024-03-25T01:42:26.488Z,1008.604
2024-03-25T01:43:25.496Z,1008.602
2024-03-25T01:44:26.497Z,1008.602
2024-03-25T01:45:26.501Z,1008.604
2024-03-25T01:46:25.581Z,1008.61
2024-03-25T01:47:26.513Z,1008.595
2024-03-25T01:48:25.526Z,1008.621
2024-03-25T01:49:26.512Z,1008.601
2024-03-25T01:50:26.499Z,1008.628
2024-03-25T01:51:30.664Z,1008.666
2024-03-25T01:52:25.511Z,1008.666
2024-03-25T01:53:25.564Z,1008.686
2024-03-25T01:54:26.495Z,1008.706
2024-03-25T01:55:26.511Z,1008.669
2024-03-25T01:56:26.515Z,1008.663
2024-03-25T01:57:25.579Z,1008.711
2024-03-25T01:58:25.570Z,1008.685
2024-03-25T01:59:26.515Z,1008.68
2024-03-25T02:00:26.551Z,1008.661
2024-03-25T02:01:26.529Z,1008.631
2024-03-25T02:02:25.580Z,1008.683
2024-03-25T02:03:25.587Z,1008.669
2024-03-25T02:04:26.522Z,1008.693
2024-03-25T02:05:26.533Z,1008.664
2024-03-25T02:06:26.527Z,1008.721
2024-03-25T02:07:25.617Z,1008.684
2024-03-25T02:08:31.910Z,1008.69
2024-03-25T02:09:27.856Z,1008.72
2024-03-25T02:10:26.568Z,1008.764
2024-03-25T02:11:26.554Z,1008.767
2024-03-25T02:12:25.596Z,1008.783
2024-03-25T02:13:26.555Z,1008.783
2024-03-25T02:14:25.606Z,1008.832
2024-03-25T02:15:26.572Z,1008.882
2024-03-25T02:16:26.549Z,1008.804
2024-03-25T02:17:25.625Z,1008.786
2024-03-25T02:18:26.566Z,1008.804
2024-03-25T02:19:25.621Z,1008.796
2024-03-25T02:20:34.256Z,1008.791
2024-03-25T02:21:25.618Z,1008.809
2024-03-25T02:22:25.623Z,1008.846
2024-03-25T02:23:26.596Z,1008.812
2024-03-25T02:24:25.639Z,1008.828
2024-03-25T02:25:26.564Z,1008.826
2024-03-25T02:26:25.629Z,1008.801
2024-03-25T02:27:25.629Z,1008.795
2024-03-25T02:28:26.579Z,1008.791
2024-03-25T02:29:25.637Z,1008.787
2024-03-25T02:30:26.584Z,1008.815
2024-03-25T02:31:25.637Z,1008.833
2024-03-25T02:32:25.655Z,1008.841
2024-03-25T02:33:26.594Z,1008.798
2024-03-25T02:34:25.651Z,1008.838
2024-03-25T02:35:26.592Z,1008.834
2024-03-25T02:36:25.652Z,1008.791
2024-03-25T02:37:26.606Z,1008.855
2024-03-25T02:38:25.655Z,1008.846
2024-03-25T02:39:25.660Z,1008.851
2024-03-25T02:40:26.596Z,1008.85
2024-03-25T02:41:25.666Z,1008.853
2024-03-25T02:42:26.609Z,1008.853
2024-03-25T02:43:25.659Z,1008.861
2024-03-25T02:44:25.663Z,1008.86
2024-03-25T02:45:26.654Z,1008.881
2024-03-25T02:46:25.676Z,1008.857
2024-03-25T02:47:26.637Z,1008.862
2024-03-25T02:48:25.637Z,1008.896
2024-03-25T02:49:30.395Z,1008.883
2024-03-25T02:50:26.699Z,1008.906
2024-03-25T02:51:25.688Z,1008.907
2024-03-25T02:52:26.630Z,1008.936
2024-03-25T02:53:25.693Z,1008.88
2024-03-25T02:54:26.680Z,1008.88
2024-03-25T02:55:26.669Z,1008.906
2024-03-25T02:56:25.669Z,1008.875
2024-03-25T02:57:26.641Z,1008.845
2024-03-25T02:58:25.711Z,1008.871
2024-03-25T02:59:26.642Z,1008.852
2024-03-25T03:00:26.699Z,1008.863
2024-03-25T03:01:25.678Z,1008.899
2024-03-25T03:02:26.662Z,1008.932
2024-03-25T03:03:25.713Z,1008.973
2024-03-25T03:04:26.668Z,1008.942
2024-03-25T03:05:26.691Z,1008.966
2024-03-25T03:06:29.332Z,1008.959
2024-03-25T03:07:25.715Z,1008.927
2024-03-25T03:08:25.728Z,1008.932
2024-03-25T03:09:26.654Z,1008.962
2024-03-25T03:10:26.690Z,1008.955
2024-03-25T03:11:26.653Z,1008.955
2024-03-25T03:12:25.686Z,1009.037
2024-03-25T03:13:25.728Z,1009.026
2024-03-25T03:14:26.669Z,1009.057
2024-03-25T03:15:26.673Z,1009.015
2024-03-25T03:16:26.686Z,1009.066
2024-03-25T03:17:25.745Z,1009.064
2024-03-25T03:18:30.390Z,1009.035
2024-03-25T03:19:25.738Z,1009.037
2024-03-25T03:20:26.708Z,1009.017
2024-03-25T03:21:26.687Z,1008.978
2024-03-25T03:22:25.748Z,1008.968
2024-03-25T03:23:26.725Z,1008.975
2024-03-25T03:24:25.751Z,1008.915
2024-03-25T03:25:26.713Z,1008.975
2024-03-25T03:26:26.706Z,1008.947
2024-03-25T03:27:25.759Z,1008.975
2024-03-25T03:28:26.740Z,1008.955
2024-03-25T03:29:25.722Z,1008.947
2024-03-25T03:30:26.708Z,1008.941
2024-03-25T03:31:26.708Z,1008.914
2024-03-25T03:32:25.722Z,1008.908
2024-03-25T03:33:26.766Z,1008.935
2024-03-25T03:34:25.727Z,1008.908
2024-03-25T03:35:26.738Z,1008.948
2024-03-25T03:36:25.732Z,1008.895
2024-03-25T03:37:25.785Z,1008.865
2024-03-25T03:38:26.759Z,1008.857
2024-03-25T03:39:25.786Z,1008.878
2024-03-25T03:40:26.740Z,1008.878
2024-03-25T03:41:25.786Z,1008.823
2024-03-25T03:42:25.790Z,1008.867
2024-03-25T03:43:26.773Z,1008.876
2024-03-25T03:44:25.755Z,1008.885
2024-03-25T03:45:26.755Z,1008.884
2024-03-25T03:46:25.803Z,1008.867
2024-03-25T03:47:30.442Z,1008.86
2024-03-25T03:48:25.795Z,1008.84
2024-03-25T03:49:25.802Z,1008.826
2024-03-25T03:50:26.746Z,1008.8
2024-03-25T03:51:25.802Z,1008.855
2024-03-25T03:52:26.795Z,1008.86
2024-03-25T03:53:25.815Z,1008.862
2024-03-25T03:54:25.831Z,1008.877
2024-03-25T03:55:26.764Z,1008.907
2024-03-25T03:56:25.828Z,1008.886
2024-03-25T03:57:26.785Z,1008.881
2024-03-25T03:58:25.824Z,1008.891
2024-03-25T03:59:25.821Z,1008.848
2024-03-25T04:00:26.811Z,1008.851
2024-03-25T04:01:25.780Z,1008.847
2024-03-25T04:02:26.828Z,1008.855
2024-03-25T04:03:25.832Z,1008.85
2024-03-25T04:04:26.789Z,1008.874
2024-03-25T04:05:26.783Z,1008.827
2024-03-25T04:06:25.795Z,1008.834
2024-03-25T04:07:26.828Z,1008.857
2024-03-25T04:08:25.823Z,1008.827
2024-03-25T04:09:26.793Z,1008.827
2024-03-25T04:10:26.812Z,1008.787
2024-03-25T04:11:25.810Z,1008.771
2024-03-25T04:12:26.832Z,1008.773
2024-03-25T04:13:25.849Z,1008.792
2024-03-25T04:14:26.806Z,1008.83
2024-03-25T04:15:26.807Z,1008.814
2024-03-25T04:16:30.498Z,1008.836
2024-03-25T04:17:25.864Z,1008.821
2024-03-25T04:18:25.823Z,1008.818
2024-03-25T04:19:26.838Z,1008.816
2024-03-25T04:20:26.796Z,1008.828
2024-03-25T04:21:26.851Z,1008.812
2024-03-25T04:22:25.833Z,1008.814
2024-03-25T04:23:25.877Z,1008.777
2024-03-25T04:24:26.853Z,1008.82
2024-03-25T04:25:26.849Z,1008.794
2024-03-25T04:26:26.840Z,1008.772
2024-03-25T04:27:25.887Z,1008.759
2024-03-25T04:28:25.886Z,1008.787
2024-03-25T04:29:26.867Z,1008.765
2024-03-25T04:30:26.840Z,1008.815
2024-03-25T04:31:26.845Z,1008.831
2024-03-25T04:32:25.923Z,1008.853
2024-03-25T04:33:29.482Z,1008.874
2024-03-25T04:34:25.897Z,1008.855
2024-03-25T04:35:26.844Z,1008.84
2024-03-25T04:36:28.434Z,1008.853
2024-03-25T04:37:25.858Z,1008.895
2024-03-25T04:38:26.855Z,1008.895
2024-03-25T04:39:25.908Z,1008.929
2024-03-25T04:40:26.859Z,1008.937
2024-03-25T04:41:26.869Z,1008.974
2024-03-25T04:42:25.920Z,1008.959
2024-03-25T04:43:26.864Z,1008.953
2024-03-25T04:44:25.883Z,1008.935
2024-03-25T04:45:30.629Z,1008.957
2024-03-25T04:46:25.882Z,1008.906
2024-03-25T04:47:25.957Z,1008.885
2024-03-25T04:48:26.872Z,1008.89
2024-03-25T04:49:25.929Z,1008.925
2024-03-25T04:50:26.875Z,1008.934
2024-03-25T04:51:25.929Z,1008.892
2024-03-25T04:52:25.935Z,1008.917
2024-03-25T04:53:26.878Z,1008.917
2024-03-25T04:54:25.951Z,1008.923
2024-03-25T04:55:26.889Z,1008.925
2024-03-25T04:56:25.949Z,1008.969
2024-03-25T04:57:25.958Z,1009
2024-03-25T04:58:28.724Z,1009.02
2024-03-25T04:59:25.910Z,1009.064
2024-03-25T05:00:26.895Z,1009.073
2024-03-25T05:01:25.992Z,1009.084
2024-03-25T05:02:26.941Z,1009.099
2024-03-25T05:03:25.919Z,1009.107
2024-03-25T05:04:25.913Z,1009.07
2024-03-25T05:05:26.893Z,1009.102
2024-03-25T05:06:25.969Z,1009.073
2024-03-25T05:07:26.948Z,1009.073
2024-03-25T05:08:25.977Z,1009.124
2024-03-25T05:09:25.929Z,1009.102
2024-03-25T05:10:26.936Z,1009.143
2024-03-25T05:11:25.936Z,1009.118
2024-03-25T05:12:26.948Z,1009.12
2024-03-25T05:13:25.984Z,1009.084
2024-03-25T05:14:30.690Z,1009.1
2024-03-25T05:15:26.954Z,1009.089
2024-03-25T05:16:25.984Z,1009.073
2024-03-25T05:17:26.956Z,1009.055
2024-03-25T05:18:25.945Z,1009.088
2024-03-25T05:19:26.945Z,1009.03
2024-03-25T05:20:26.937Z,1009.034
2024-03-25T05:21:26.001Z,1009.082
2024-03-25T05:22:26.953Z,1009.081
2024-03-25T05:23:26.017Z,1009.129
2024-03-25T05:24:26.968Z,1009.129
2024-03-25T05:25:26.955Z,1009.137
2024-03-25T05:26:25.962Z,1009.114
2024-03-25T05:27:26.953Z,1009.159
2024-03-25T05:28:26.014Z,1009.152
2024-03-25T05:29:26.964Z,1009.163
2024-03-25T05:30:26.989Z,1009.146
2024-03-25T05:31:26.955Z,1009.144
2024-03-25T05:32:26.031Z,1009.124
2024-03-25T05:33:25.979Z,1009.137
2024-03-25T05:34:26.978Z,1009.161
2024-03-25T05:35:26.997Z,1009.14
2024-03-25T05:36:26.964Z,1009.14
2024-03-25T05:37:26.027Z,1009.158
2024-03-25T05:38:26.027Z,1009.158
2024-03-25T05:39:27.009Z,1009.153
2024-03-25T05:40:26.981Z,1009.136
2024-03-25T05:41:26.995Z,1009.157
2024-03-25T05:42:25.998Z,1009.209
2024-03-25T05:43:30.793Z,1009.22
2024-03-25T05:44:26.041Z,1009.207
2024-03-25T05:45:26.991Z,1009.185
2024-03-25T05:46:26.977Z,1009.187
2024-03-25T05:47:26.054Z,1009.21
2024-03-25T05:48:26.988Z,1009.209
2024-03-25T05:49:26.048Z,1009.241
2024-03-25T05:50:26.988Z,1009.264
2024-03-25T05:51:26.998Z,1009.242
2024-03-25T05:52:26.023Z,1009.247
2024-03-25T05:53:27.012Z,1009.258
2024-03-25T05:54:26.061Z,1009.263
2024-03-25T05:55:27.010Z,1009.248
2024-03-25T05:56:27.017Z,1009.268
2024-03-25T05:57:26.074Z,1009.263
2024-03-25T05:58:27.014Z,1009.283
2024-03-25T05:59:26.075Z,1009.262
2024-03-25T06:00:27.046Z,1009.283
2024-03-25T06:01:26.037Z,1009.289
2024-03-25T06:02:26.084Z,1009.234
2024-03-25T06:03:27.064Z,1009.264
2024-03-25T06:04:26.089Z,1009.205
2024-03-25T06:05:27.037Z,1009.205
2024-03-25T06:06:26.095Z,1009.193
2024-03-25T06:07:26.096Z,1009.19
2024-03-25T06:08:27.081Z,1009.179
2024-03-25T06:09:26.106Z,1009.154
2024-03-25T06:10:27.047Z,1009.142
2024-03-25T06:11:26.102Z,1009.162
2024-03-25T06:12:30.794Z,1009.169
2024-03-25T06:13:26.100Z,1009.169
2024-03-25T06:14:26.101Z,1009.169
2024-03-25T06:15:27.060Z,1009.206
2024-03-25T06:16:26.146Z,1009.213
2024-03-25T06:17:27.066Z,1009.23
2024-03-25T06:18:26.073Z,1009.245
2024-03-25T06:19:26.074Z,1009.252
2024-03-25T06:20:27.074Z,1009.259
2024-03-25T06:21:26.122Z,1009.307
2024-03-25T06:22:27.089Z,1009.259
2024-03-25T06:23:26.124Z,1009.259
2024-03-25T06:24:26.078Z,1009.222
2024-03-25T06:25:27.072Z,1009.241
2024-03-25T06:26:26.136Z,1009.198
2024-03-25T06:27:27.068Z,1009.272
2024-03-25T06:28:26.144Z,1009.171
2024-03-25T06:29:27.095Z,1009.197
2024-03-25T06:30:27.082Z,1009.2
2024-03-25T06:31:26.153Z,1009.206
2024-03-25T06:32:27.109Z,1009.197
2024-03-25T06:33:26.111Z,1009.234
2024-03-25T06:34:27.095Z,1009.234
2024-03-25T06:35:27.109Z,1009.22
2024-03-25T06:36:26.156Z,1009.215
2024-03-25T06:37:27.126Z,1009.231
2024-03-25T06:38:26.149Z,1009.237
2024-03-25T06:39:27.110Z,1009.211
2024-03-25T06:40:27.099Z,1009.217
2024-03-25T06:41:30.842Z,1009.213
2024-03-25T06:42:26.177Z,1009.21
2024-03-25T06:43:26.132Z,1009.222
2024-03-25T06:44:27.149Z,1009.177
2024-03-25T06:45:27.111Z,1009.229
2024-03-25T06:46:27.109Z,1009.23
2024-03-25T06:47:26.153Z,1009.182
2024-03-25T06:48:26.172Z,1009.192
2024-03-25T06:49:27.153Z,1009.195
2024-03-25T06:50:27.135Z,1009.24
2024-03-25T06:51:27.133Z,1009.248
2024-03-25T06:52:26.190Z,1009.245
2024-03-25T06:53:26.206Z,1009.26
2024-03-25T06:54:27.191Z,1009.213
2024-03-25T06:55:27.158Z,1009.241
2024-03-25T06:56:27.152Z,1009.261
2024-03-25T06:57:26.225Z,1009.247
2024-03-25T06:58:27.144Z,1009.272
2024-03-25T06:59:26.221Z,1009.26
2024-03-25T07:00:27.211Z,1009.266
2024-03-25T07:01:27.142Z,1009.275
2024-03-25T07:02:26.228Z,1009.215
2024-03-25T07:03:27.166Z,1009.215
2024-03-25T07:04:26.170Z,1009.306
2024-03-25T07:05:27.163Z,1009.251
2024-03-25T07:06:27.169Z,1009.269
2024-03-25T07:07:26.238Z,1009.256
2024-03-25T07:08:27.169Z,1009.253
2024-03-25T07:09:26.185Z,1009.28
2024-03-25T07:10:30.905Z,1009.28
2024-03-25T07:11:26.182Z,1009.307
2024-03-25T07:12:26.237Z,1009.288
2024-03-25T07:13:27.167Z,1009.296
2024-03-25T07:14:26.239Z,1009.322
2024-03-25T07:15:27.206Z,1009.32
2024-03-25T07:16:26.216Z,1009.297
2024-03-25T07:17:26.256Z,1009.327
2024-03-25T07:18:27.220Z,1009.33
2024-03-25T07:19:26.195Z,1009.34
2024-03-25T07:20:27.216Z,1009.352
2024-03-25T07:21:28.198Z,1009.319
2024-03-25T07:22:26.209Z,1009.33
2024-03-25T07:23:27.198Z,1009.317
2024-03-25T07:24:26.262Z,1009.316
2024-03-25T07:25:27.212Z,1009.317
2024-03-25T07:26:26.261Z,1009.298
2024-03-25T07:27:27.205Z,1009.29
2024-03-25T07:28:26.800Z,1009.261
2024-03-25T07:29:26.219Z,1009.263
2024-03-25T07:30:27.217Z,1009.254
2024-03-25T07:31:26.229Z,1009.296
2024-03-25T07:32:27.261Z,1009.296
2024-03-25T07:33:26.243Z,1009.306
2024-03-25T07:34:26.300Z,1009.305
2024-03-25T07:35:27.307Z,1009.28
2024-03-25T07:36:26.280Z,1009.269
2024-03-25T07:37:27.229Z,1009.24
2024-03-25T07:38:26.439Z,1009.248
2024-03-25T07:39:30.986Z,1009.259
2024-03-25T07:40:27.275Z,1009.268
2024-03-25T07:41:26.254Z,1009.259
2024-03-25T07:42:27.250Z,1009.254
2024-03-25T07:43:26.298Z,1009.199
2024-03-25T07:44:27.255Z,1009.239
2024-03-25T07:45:27.307Z,1009.25
2024-03-25T07:46:26.302Z,1009.25
2024-03-25T07:47:27.260Z,1009.24
2024-03-25T07:48:26.285Z,1009.235
2024-03-25T07:49:27.261Z,1009.211
2024-03-25T07:50:27.280Z,1009.238
2024-03-25T07:51:26.404Z,1009.24
2024-03-25T07:52:27.266Z,1009.217
2024-03-25T07:53:26.272Z,1009.2
2024-03-25T07:54:27.300Z,1009.167
2024-03-25T07:55:27.312Z,1009.193
2024-03-25T07:56:27.719Z,1009.135
2024-03-25T07:57:26.299Z,1009.162
2024-03-25T07:58:26.340Z,1009.143
2024-03-25T07:59:27.320Z,1009.157
2024-03-25T08:00:27.299Z,1009.179
2024-03-25T08:01:27.314Z,1009.179
2024-03-25T08:02:26.296Z,1009.103
2024-03-25T08:03:26.382Z,1009.1
2024-03-25T08:04:27.350Z,1009.117
2024-03-25T08:05:27.352Z,1009.154
2024-03-25T08:06:27.289Z,1009.174
2024-03-25T08:07:26.343Z,1009.162
2024-03-25T08:08:31.084Z,1009.161
2024-03-25T08:09:26.328Z,1009.166
2024-03-25T08:10:27.323Z,1009.16
2024-03-25T08:11:27.380Z,1009.144
2024-03-25T08:12:26.316Z,1009.184
2024-03-25T08:13:35.954Z,1009.175
2024-03-25T08:14:26.312Z,1009.167
2024-03-25T08:15:27.302Z,1009.17
2024-03-25T08:16:27.311Z,1009.153
2024-03-25T08:17:26.359Z,1009.169
2024-03-25T08:18:27.353Z,1009.163
2024-03-25T08:19:26.326Z,1009.194
2024-03-25T08:20:27.342Z,1009.169
2024-03-25T08:21:27.355Z,1009.185
2024-03-25T08:22:26.332Z,1009.171
2024-03-25T08:23:27.314Z,1009.155
2024-03-25T08:24:26.382Z,1009.184
2024-03-25T08:25:27.334Z,1009.152
2024-03-25T08:26:26.342Z,1009.156
2024-03-25T08:27:26.435Z,1009.152
2024-03-25T08:28:27.331Z,1009.124
2024-03-25T08:29:26.390Z,1009.139
2024-03-25T08:30:27.337Z,1009.139
2024-03-25T08:31:26.468Z,1009.105
2024-03-25T08:32:26.363Z,1009.079
2024-03-25T08:33:27.359Z,1009.091
2024-03-25T08:34:26.404Z,1009.079
2024-03-25T08:35:27.346Z,1009.041
2024-03-25T08:36:26.413Z,1009.08
2024-03-25T08:37:31.083Z,1009.057
2024-03-25T08:38:26.417Z,1009.031
2024-03-25T08:39:26.368Z,1009.066
2024-03-25T08:40:27.361Z,1009.028
2024-03-25T08:41:26.423Z,1008.985
2024-03-25T08:42:27.363Z,1009.005
2024-03-25T08:43:26.372Z,1009.02
2024-03-25T08:44:26.428Z,1008.946
2024-03-25T08:45:27.408Z,1009.013
2024-03-25T08:46:26.425Z,1008.984
2024-03-25T08:47:27.392Z,1008.984
2024-03-25T08:48:26.433Z,1008.961
2024-03-25T08:49:26.408Z,1008.949
2024-03-25T08:50:27.414Z,1008.916
2024-03-25T08:51:26.396Z,1008.86
2024-03-25T08:52:27.399Z,1008.878
2024-03-25T08:53:26.437Z,1008.904
2024-03-25T08:54:30.090Z,1008.908
2024-03-25T08:55:27.451Z,1008.912
2024-03-25T08:56:26.414Z,1008.911
2024-03-25T08:57:27.551Z,1008.929
2024-03-25T08:58:26.481Z,1008.921
2024-03-25T08:59:27.412Z,1008.921
2024-03-25T09:00:27.407Z,1008.953
2024-03-25T09:01:26.442Z,1008.997
2024-03-25T09:02:27.446Z,1008.984
2024-03-25T09:03:26.462Z,1008.974
2024-03-25T09:04:28.382Z,1008.938
2024-03-25T09:05:27.436Z,1008.996
2024-03-25T09:06:35.139Z,1008.986
2024-03-25T09:07:26.464Z,1008.974
2024-03-25T09:08:26.465Z,1008.986
2024-03-25T09:09:27.471Z,1008.983
2024-03-25T09:10:27.455Z,1009.035
2024-03-25T09:11:27.454Z,1009.013
2024-03-25T09:12:26.568Z,1009.04
2024-03-25T09:13:26.442Z,1009.045
2024-03-25T09:14:27.467Z,1009.045
2024-03-25T09:15:27.440Z,1009.009
2024-03-25T09:16:27.463Z,1009.068
2024-03-25T09:17:26.518Z,1009.051
2024-03-25T09:18:26.450Z,1009.062
2024-03-25T09:19:27.491Z,1009.089
2024-03-25T09:20:27.444Z,1009.064
2024-03-25T09:21:27.457Z,1009.025
2024-03-25T09:22:26.522Z,1009.03
2024-03-25T09:23:30.160Z,1009.063
2024-03-25T09:24:26.527Z,1009.038
2024-03-25T09:25:27.455Z,1009.021
2024-03-25T09:26:27.487Z,1008.959
2024-03-25T09:27:26.656Z,1008.98
2024-03-25T09:28:27.460Z,1008.98
2024-03-25T09:29:26.494Z,1008.935
2024-03-25T09:30:27.483Z,1008.964
2024-03-25T09:31:27.474Z,1008.934
2024-03-25T09:32:26.489Z,1008.923
2024-03-25T09:33:27.494Z,1008.91
2024-03-25T09:34:26.529Z,1008.892
2024-03-25T09:35:31.226Z,1008.886
2024-03-25T09:36:26.554Z,1008.9
2024-03-25T09:37:26.527Z,1008.905
2024-03-25T09:38:27.486Z,1008.928
2024-03-25T09:39:26.543Z,1008.967
2024-03-25T09:40:27.496Z,1008.975
2024-03-25T09:41:26.554Z,1008.958
2024-03-25T09:42:26.706Z,1008.953
2024-03-25T09:43:27.557Z,1008.968
2024-03-25T09:44:26.513Z,1008.964
2024-03-25T09:45:27.527Z,1008.938
2024-03-25T09:46:26.531Z,1008.923
2024-03-25T09:47:26.530Z,1008.94
2024-03-25T09:48:27.530Z,1008.899
2024-03-25T09:49:26.539Z,1008.923
2024-03-25T09:50:27.543Z,1008.894
2024-03-25T09:51:26.565Z,1008.913
2024-03-25T09:52:27.511Z,1008.913
2024-03-25T09:53:26.591Z,1008.868
2024-03-25T09:54:26.629Z,1008.891
2024-03-25T09:55:27.516Z,1008.882
2024-03-25T09:56:26.590Z,1008.868
2024-03-25T09:57:27.534Z,1008.868
2024-03-25T09:58:26.590Z,1008.855
2024-03-25T09:59:26.585Z,1008.84
2024-03-25T10:00:27.558Z,1008.812
2024-03-25T10:01:26.644Z,1008.809
2024-03-25T10:02:27.564Z,1008.822
2024-03-25T10:03:26.579Z,1008.776
2024-03-25T10:04:31.287Z,1008.73
2024-03-25T10:05:27.588Z,1008.745
2024-03-25T10:06:26.633Z,1008.713
2024-03-25T10:07:27.603Z,1008.704
2024-03-25T10:08:26.551Z,1008.699
2024-03-25T10:09:27.543Z,1008.649
2024-03-25T10:10:27.653Z,1008.629
2024-03-25T10:11:26.602Z,1008.638
2024-03-25T10:12:27.605Z,1008.607
2024-03-25T10:13:26.624Z,1008.585
2024-03-25T10:14:27.588Z,1008.523
2024-03-25T10:15:27.612Z,1008.56
2024-03-25T10:16:26.713Z,1008.551
2024-03-25T10:17:27.614Z,1008.528
2024-03-25T10:18:26.595Z,1008.576
2024-03-25T10:19:27.621Z,1008.539
2024-03-25T10:20:27.567Z,1008.541
2024-03-25T10:21:30.270Z,1008.548
2024-03-25T10:22:26.632Z,1008.53
2024-03-25T10:23:26.588Z,1008.49
2024-03-25T10:24:27.647Z,1008.492
2024-03-25T10:25:27.589Z,1008.562
2024-03-25T10:26:27.667Z,1008.562
2024-03-25T10:27:26.598Z,1008.538
2024-03-25T10:28:26.703Z,1008.536
2024-03-25T10:29:27.620Z,1008.546
2024-03-25T10:30:27.679Z,1008.532
2024-03-25T10:31:27.629Z,1008.52
2024-03-25T10:32:26.664Z,1008.487
2024-03-25T10:33:31.344Z,1008.469
2024-03-25T10:34:26.645Z,1008.446
2024-03-25T10:35:28.756Z,1008.432
2024-03-25T10:36:27.624Z,1008.404
2024-03-25T10:37:26.796Z,1008.348
2024-03-25T10:38:27.635Z,1008.358
2024-03-25T10:39:26.649Z,1008.357
2024-03-25T10:40:27.674Z,1008.316
2024-03-25T10:41:27.625Z,1008.304
2024-03-25T10:42:26.630Z,1008.288
2024-03-25T10:43:27.690Z,1008.298
2024-03-25T10:44:26.633Z,1008.289
2024-03-25T10:45:27.686Z,1008.299
2024-03-25T10:46:27.638Z,1008.242
2024-03-25T10:47:26.715Z,1008.154
2024-03-25T10:48:27.637Z,1008.217
2024-03-25T10:49:26.700Z,1008.175
2024-03-25T10:50:29.703Z,1008.128
2024-03-25T10:51:26.745Z,1008.185
2024-03-25T10:52:26.650Z,1008.196
2024-03-25T10:53:27.670Z,1008.139
2024-03-25T10:54:26.908Z,1008.146
2024-03-25T10:55:27.669Z,1008.146
2024-03-25T10:56:26.693Z,1008.07
2024-03-25T10:57:26.666Z,1008.083
2024-03-25T10:58:27.675Z,1008.057
2024-03-25T10:59:26.857Z,1008.038
2024-03-25T11:00:27.704Z,1008.023
2024-03-25T11:01:26.684Z,1008.013
2024-03-25T11:02:31.912Z,1008.007
2024-03-25T11:03:26.673Z,1007.98
2024-03-25T11:04:26.743Z,1007.999
2024-03-25T11:05:27.931Z,1007.966
2024-03-25T11:06:26.692Z,1007.977
2024-03-25T11:07:31.290Z,1007.963
2024-03-25T11:08:26.753Z,1007.922
2024-03-25T11:09:26.697Z,1007.905
2024-03-25T11:10:27.700Z,1007.921
2024-03-25T11:11:26.717Z,1007.956
2024-03-25T11:12:27.694Z,1007.898
2024-03-25T11:13:26.747Z,1007.89
2024-03-25T11:14:26.747Z,1007.911
2024-03-25T11:15:27.697Z,1007.899
2024-03-25T11:16:26.776Z,1007.839
2024-03-25T11:17:27.754Z,1007.829
2024-03-25T11:18:26.708Z,1007.854
2024-03-25T11:19:27.728Z,1007.838
2024-03-25T11:20:27.773Z,1007.836
2024-03-25T11:21:26.732Z,1007.787
2024-03-25T11:22:27.731Z,1007.781
2024-03-25T11:23:26.747Z,1007.782
2024-03-25T11:24:27.721Z,1007.782
2024-03-25T11:25:27.744Z,1007.735
2024-03-25T11:26:26.769Z,1007.73
2024-03-25T11:27:27.725Z,1007.685
2024-03-25T11:28:26.778Z,1007.708
2024-03-25T11:29:27.730Z,1007.645
2024-03-25T11:30:27.727Z,1007.628
2024-03-25T11:31:34.132Z,1007.598
2024-03-25T11:32:26.812Z,1007.58
2024-03-25T11:33:26.744Z,1007.593
2024-03-25T11:34:27.756Z,1007.568
2024-03-25T11:35:27.740Z,1007.518
2024-03-25T11:36:27.773Z,1007.54
2024-03-25T11:37:26.799Z,1007.519
2024-03-25T11:38:26.799Z,1007.474
2024-03-25T11:39:27.760Z,1007.457
2024-03-25T11:40:27.767Z,1007.468
2024-03-25T11:41:27.793Z,1007.49
2024-03-25T11:42:26.829Z,1007.475
2024-03-25T11:43:26.802Z,1007.471
2024-03-25T11:44:27.768Z,1007.435
2024-03-25T11:45:27.797Z,1007.444
2024-03-25T11:46:27.815Z,1007.491
2024-03-25T11:47:26.792Z,1007.483